Time;durP1;ratioP1;P1;durP2;ratioP2;P2;SDS_P1;SDS_P2;PMS_P1;PMS_P2;Temp;Humidity;BMP_temperature;BMP_pressure;BME280_temperature;BME280_humidity;BME280_pressure;Samples;Min_cycle;Max_cycle;Signal;HPM_P1;HPM_P2
2022/01/04 00:00:08;;;;;;;4.03;1.92;;;9.90;99.90;;;;;;5061790;28;20041;-72
2022/01/04 00:02:34;;;;;;;6.32;2.80;;;9.90;99.90;;;;;;5027581;28;20037;-72
2022/01/04 00:05:00;;;;;;;4.43;2.17;;;9.90;99.90;;;;;;5067852;28;20478;-72
2022/01/04 00:07:28;;;;;;;7.38;2.88;;;9.90;99.90;;;;;;5070236;28;20036;-72
2022/01/04 00:09:55;;;;;;;8.38;2.20;;;9.90;99.90;;;;;;5069433;28;20066;-73
2022/01/04 00:15:05;;;;;;;8.88;3.13;;;9.80;99.90;;;;;;5065733;28;20189;-72
2022/01/04 00:17:31;;;;;;;14.10;4.20;;;9.90;99.90;;;;;;5038698;28;20029;-72
2022/01/04 00:19:57;;;;;;;10.63;3.80;;;9.90;99.90;;;;;;5052318;28;20443;-72
2022/01/04 00:22:24;;;;;;;8.13;2.22;;;9.90;99.90;;;;;;5051705;28;20033;-72
2022/01/04 00:24:50;;;;;;;14.25;3.92;;;9.80;99.90;;;;;;5047660;28;20033;-72
2022/01/04 00:27:18;;;;;;;10.50;3.15;;;9.90;99.90;;;;;;5066046;28;20039;-72
2022/01/04 00:29:44;;;;;;;6.35;2.78;;;9.80;99.90;;;;;;5049372;28;20086;-71
2022/01/04 00:32:09;;;;;;;8.93;2.78;;;9.90;99.90;;;;;;5052807;28;20021;-72
2022/01/04 00:34:36;;;;;;;6.38;2.72;;;9.80;99.90;;;;;;5063120;28;20533;-74
2022/01/04 00:37:01;;;;;;;6.63;2.80;;;9.80;99.90;;;;;;5015134;28;20029;-73
2022/01/04 00:39:27;;;;;;;7.13;2.85;;;9.80;99.90;;;;;;5044784;28;20033;-72
2022/01/04 00:41:53;;;;;;;8.18;2.80;;;9.80;99.90;;;;;;5059069;28;20127;-72
2022/01/04 00:44:19;;;;;;;7.15;2.83;;;9.80;99.90;;;;;;5068646;28;20108;-72
2022/01/04 00:46:46;;;;;;;4.85;2.40;;;9.80;99.90;;;;;;5060984;28;20033;-72
2022/01/04 00:49:12;;;;;;;4.75;2.45;;;9.80;99.90;;;;;;5045852;28;20037;-72
2022/01/04 00:51:39;;;;;;;7.22;3.17;;;9.80;99.90;;;;;;5052150;28;20037;-73
2022/01/04 00:54:05;;;;;;;7.50;2.80;;;9.80;99.90;;;;;;5031841;28;20502;-72
2022/01/04 00:56:31;;;;;;;4.32;2.80;;;9.80;99.90;;;;;;5066681;28;20048;-72
2022/01/04 00:58:57;;;;;;;8.48;3.55;;;9.80;99.90;;;;;;5051598;28;20029;-72
2022/01/04 01:01:23;;;;;;;4.50;1.83;;;9.80;99.90;;;;;;5063260;28;20040;-72
2022/01/04 01:03:49;;;;;;;4.07;2.22;;;9.80;99.90;;;;;;5057701;28;20033;-73
2022/01/04 01:06:18;;;;;;;6.72;2.30;;;9.80;99.90;;;;;;5067026;28;20048;-74
2022/01/04 01:08:47;;;;;;;7.32;3.08;;;9.80;99.90;;;;;;5060322;28;20032;-72
2022/01/04 01:11:13;;;;;;;5.53;2.53;;;9.70;99.90;;;;;;5064505;28;20078;-73
2022/01/04 01:13:39;;;;;;;12.52;3.72;;;9.70;99.90;;;;;;5068853;28;20115;-72
2022/01/04 01:16:06;;;;;;;8.20;3.88;;;9.70;99.90;;;;;;5062396;28;20032;-72
2022/01/04 01:18:32;;;;;;;4.97;1.90;;;9.70;99.90;;;;;;5062778;28;20036;-72
2022/01/04 01:20:59;;;;;;;5.63;1.80;;;9.70;99.90;;;;;;5062151;28;20056;-73
2022/01/04 01:23:25;;;;;;;5.60;2.20;;;9.70;99.90;;;;;;5054059;28;20025;-72
2022/01/04 01:25:51;;;;;;;5.20;2.13;;;9.70;99.90;;;;;;5058674;28;20384;-72
2022/01/04 01:28:18;;;;;;;3.25;2.20;;;9.70;99.90;;;;;;5053205;28;20506;-73
2022/01/04 01:30:44;;;;;;;5.97;1.77;;;9.70;99.90;;;;;;5064837;28;20036;-72
2022/01/04 01:33:10;;;;;;;4.35;1.90;;;9.60;99.90;;;;;;5051689;28;20036;-73
2022/01/04 01:35:37;;;;;;;5.45;2.00;;;9.60;99.90;;;;;;5049227;28;20124;-72
2022/01/04 01:38:04;;;;;;;5.10;2.53;;;9.60;99.90;;;;;;5056674;28;20130;-72
2022/01/04 01:40:30;;;;;;;6.15;1.92;;;9.60;99.90;;;;;;5054284;28;20021;-72
2022/01/04 01:42:56;;;;;;;3.38;1.90;;;9.60;99.90;;;;;;5040629;28;20037;-72
2022/01/04 01:45:23;;;;;;;6.82;2.00;;;9.60;99.90;;;;;;5048491;28;20038;-71
2022/01/04 01:47:49;;;;;;;5.75;2.55;;;9.60;99.90;;;;;;5061512;28;20036;-72
2022/01/04 01:50:14;;;;;;;9.00;2.58;;;9.60;99.90;;;;;;5051962;28;20392;-75
2022/01/04 01:52:40;;;;;;;7.38;2.65;;;9.60;99.90;;;;;;5030092;28;20042;-71
2022/01/04 01:55:06;;;;;;;9.90;3.28;;;9.60;99.90;;;;;;5043448;28;20083;-71
2022/01/04 01:57:32;;;;;;;7.22;2.45;;;9.60;99.90;;;;;;5063924;28;20426;-73
2022/01/04 01:59:58;;;;;;;9.48;4.35;;;9.60;99.90;;;;;;5049167;28;20040;-71
2022/01/04 02:02:24;;;;;;;3.83;2.25;;;9.60;99.90;;;;;;5067701;28;20127;-71
2022/01/04 02:04:49;;;;;;;5.43;2.13;;;9.60;99.90;;;;;;5067579;28;20450;-71
2022/01/04 02:07:16;;;;;;;9.93;2.88;;;9.60;99.90;;;;;;5019515;28;20029;-72
2022/01/04 02:09:47;;;;;;;4.45;2.40;;;9.60;99.90;;;;;;5032715;28;20020;-72
2022/01/04 02:12:13;;;;;;;5.10;2.08;;;9.60;99.90;;;;;;5051418;28;20049;-72
2022/01/04 02:14:39;;;;;;;14.35;3.53;;;9.60;99.90;;;;;;5034235;28;20021;-71
2022/01/04 02:17:05;;;;;;;7.82;3.38;;;9.60;99.90;;;;;;5056668;28;20102;-72
2022/01/04 02:19:34;;;;;;;13.57;3.22;;;9.60;99.90;;;;;;5033487;28;20037;-71
2022/01/04 02:22:00;;;;;;;;;;;9.60;99.90;;;;;;5048320;28;20079;-71
2022/01/04 02:24:26;;;;;;;3.53;1.70;;;9.60;99.90;;;;;;5075105;28;19913;-71
2022/01/04 02:26:52;;;;;;;7.43;2.33;;;9.60;99.90;;;;;;5059645;28;20506;-72
2022/01/04 02:29:17;;;;;;;4.32;2.28;;;9.60;99.90;;;;;;5065129;28;20036;-73
2022/01/04 02:31:43;;;;;;;4.13;1.70;;;9.60;99.90;;;;;;5044305;28;20040;-73
2022/01/04 02:34:08;;;;;;;4.88;1.60;;;9.60;99.90;;;;;;5070629;28;20028;-72
2022/01/04 02:36:39;;;;;;;4.78;1.83;;;9.50;99.90;;;;;;5051924;28;20090;-73
2022/01/04 02:39:04;;;;;;;4.18;1.60;;;9.50;99.90;;;;;;5044738;28;20039;-71
2022/01/04 02:41:30;;;;;;;5.97;3.15;;;9.50;99.90;;;;;;5038935;28;20475;-71
2022/01/04 02:43:56;;;;;;;4.50;1.95;;;9.50;99.90;;;;;;5018988;28;20080;-71
2022/01/04 02:46:21;;;;;;;4.65;1.80;;;9.50;99.90;;;;;;5050437;28;20032;-71
2022/01/04 02:48:47;;;;;;;5.25;1.80;;;9.50;99.90;;;;;;5047964;28;20033;-71
2022/01/04 02:51:13;;;;;;;4.85;1.85;;;9.40;99.90;;;;;;5055546;28;20086;-72
2022/01/04 02:53:39;;;;;;;8.77;2.33;;;9.40;99.90;;;;;;5060541;28;20045;-73
2022/01/04 02:56:04;;;;;;;4.80;2.28;;;9.40;99.90;;;;;;5034320;28;20029;-72
2022/01/04 02:58:30;;;;;;;7.18;2.90;;;9.40;99.90;;;;;;5060997;28;20483;-71
2022/01/04 03:00:56;;;;;;;8.48;2.85;;;9.40;99.90;;;;;;5069179;28;20047;-71
2022/01/04 03:03:21;;;;;;;3.33;1.95;;;9.40;99.90;;;;;;5071865;28;20036;-71
2022/01/04 03:05:50;;;;;;;5.07;2.92;;;9.40;99.90;;;;;;5067714;28;20024;-72
2022/01/04 03:08:15;;;;;;;4.63;1.88;;;9.40;99.90;;;;;;5044839;28;20052;-71
2022/01/04 03:10:44;;;;;;;6.40;2.67;;;9.40;99.90;;;;;;5054746;28;20057;-73
2022/01/04 03:13:10;;;;;;;4.97;1.60;;;9.40;99.90;;;;;;5057615;28;20104;-71
2022/01/04 03:15:36;;;;;;;2.75;1.60;;;9.40;99.90;;;;;;5065797;28;20067;-72
2022/01/04 03:18:01;;;;;;;5.00;2.40;;;9.40;99.90;;;;;;5055183;28;20053;-72
2022/01/04 03:20:27;;;;;;;6.13;1.60;;;9.40;99.90;;;;;;5055200;28;20082;-71
2022/01/04 03:22:53;;;;;;;5.13;2.33;;;9.40;99.90;;;;;;5057721;28;20060;-72
2022/01/04 03:25:19;;;;;;;6.80;2.58;;;9.40;99.90;;;;;;5045717;28;20553;-72
2022/01/04 03:27:44;;;;;;;5.55;1.90;;;9.40;99.90;;;;;;5045640;28;20095;-71
2022/01/04 03:30:10;;;;;;;6.10;2.50;;;9.40;99.90;;;;;;5056217;28;20037;-71
2022/01/04 03:32:37;;;;;;;3.58;1.80;;;9.40;99.90;;;;;;5054987;28;20033;-72
2022/01/04 03:35:03;;;;;;;5.82;2.42;;;9.40;99.90;;;;;;5057219;28;20038;-71
2022/01/04 03:37:29;;;;;;;5.45;2.58;;;9.40;99.90;;;;;;5054907;28;20074;-71
2022/01/04 03:39:54;;;;;;;4.10;1.60;;;9.40;99.90;;;;;;5062800;28;20032;-72
2022/01/04 03:42:20;;;;;;;5.68;2.10;;;9.40;99.90;;;;;;5064078;28;20036;-72
2022/01/04 03:44:46;;;;;;;11.45;3.22;;;9.40;99.90;;;;;;5036823;28;20025;-74
2022/01/04 03:47:11;;;;;;;7.57;2.45;;;9.40;99.90;;;;;;5057116;28;20480;-72
2022/01/04 03:49:37;;;;;;;8.85;3.00;;;9.40;99.90;;;;;;5051695;28;20491;-71
2022/01/04 03:52:03;;;;;;;10.07;3.00;;;9.40;99.90;;;;;;5056246;28;20069;-72
2022/01/04 03:54:28;;;;;;;8.40;2.58;;;9.40;99.90;;;;;;5069676;28;20529;-72
2022/01/04 03:56:54;;;;;;;7.38;3.40;;;9.40;99.90;;;;;;5053275;28;20025;-71
2022/01/04 03:59:20;;;;;;;7.95;2.58;;;9.40;99.90;;;;;;5025250;28;20037;-73
2022/01/04 04:01:47;;;;;;;5.65;2.53;;;9.40;99.90;;;;;;5042711;28;20033;-73
2022/01/04 04:04:13;;;;;;;6.53;2.13;;;9.40;99.90;;;;;;5067776;28;20036;-72
2022/01/04 04:06:39;;;;;;;11.15;2.72;;;9.50;99.90;;;;;;5024312;28;20124;-71
2022/01/04 04:09:05;;;;;;;8.57;2.83;;;9.50;99.90;;;;;;5038148;28;20120;-71
2022/01/04 04:11:30;;;;;;;7.55;3.03;;;9.50;99.90;;;;;;5035843;28;20053;-71
2022/01/04 04:13:56;;;;;;;10.50;3.33;;;9.50;99.90;;;;;;5023221;28;20362;-71
2022/01/04 04:16:22;;;;;;;8.00;2.90;;;9.50;99.90;;;;;;5032608;28;20072;-72
2022/01/04 04:18:47;;;;;;;12.50;2.88;;;9.50;99.90;;;;;;5033154;28;20060;-72
2022/01/04 04:21:13;;;;;;;7.50;2.40;;;9.60;99.90;;;;;;5040557;28;20249;-74
2022/01/04 04:23:39;;;;;;;9.27;3.45;;;9.50;99.90;;;;;;5050652;28;20477;-71
2022/01/04 04:26:06;;;;;;;7.88;2.20;;;9.60;99.90;;;;;;5051244;28;20060;-71
2022/01/04 04:28:32;;;;;;;8.68;2.40;;;9.50;99.90;;;;;;5031889;28;20033;-72
2022/01/04 04:30:57;;;;;;;3.78;2.00;;;9.50;99.90;;;;;;5049532;28;20037;-72
2022/01/04 04:33:23;;;;;;;7.95;2.72;;;9.60;99.90;;;;;;5051254;28;20439;-71
2022/01/04 04:35:49;;;;;;;6.70;2.35;;;9.50;99.90;;;;;;5051839;28;20083;-71
2022/01/04 04:38:14;;;;;;;8.73;2.42;;;9.60;99.90;;;;;;5034657;28;20104;-71
2022/01/04 04:40:40;;;;;;;6.88;2.67;;;9.60;99.90;;;;;;5033817;28;20044;-71
2022/01/04 04:43:06;;;;;;;6.28;2.30;;;9.60;99.90;;;;;;5026706;28;20506;-71
2022/01/04 04:45:31;;;;;;;5.85;2.40;;;9.60;99.90;;;;;;5015362;28;20041;-71
2022/01/04 04:47:57;;;;;;;5.68;2.10;;;9.60;99.90;;;;;;5032693;28;20423;-71
2022/01/04 04:50:23;;;;;;;3.97;2.08;;;9.60;99.90;;;;;;5035036;28;20440;-72
2022/01/04 04:52:48;;;;;;;5.55;2.42;;;9.60;99.90;;;;;;5032465;28;20051;-71
2022/01/04 04:55:14;;;;;;;7.70;3.28;;;9.60;99.90;;;;;;5051550;28;20028;-71
2022/01/04 04:57:40;;;;;;;6.32;2.67;;;9.60;99.90;;;;;;5049774;28;20365;-71
2022/01/04 05:00:08;;;;;;;7.63;3.08;;;9.60;99.90;;;;;;5050476;28;20039;-71
2022/01/04 05:02:34;;;;;;;6.32;2.60;;;9.70;99.90;;;;;;5040550;28;20025;-71
2022/01/04 05:04:59;;;;;;;9.55;2.78;;;9.70;99.90;;;;;;5047361;28;20035;-75
2022/01/04 05:07:26;;;;;;;13.05;3.60;;;9.70;99.90;;;;;;5032778;28;20128;-72
2022/01/04 05:09:51;;;;;;;5.40;2.88;;;9.70;99.90;;;;;;5039776;28;20032;-70
2022/01/04 05:12:17;;;;;;;6.07;2.63;;;9.70;99.90;;;;;;5038104;28;20049;-72
2022/01/04 05:14:46;;;;;;;12.93;2.90;;;9.70;99.90;;;;;;5032804;28;20037;-72
2022/01/04 05:17:12;;;;;;;12.10;3.60;;;9.70;99.90;;;;;;5050256;28;20044;-72
2022/01/04 05:19:38;;;;;;;11.20;3.10;;;9.70;99.90;;;;;;5048858;28;20057;-71
2022/01/04 05:22:04;;;;;;;6.65;2.90;;;9.70;99.90;;;;;;5051740;28;20114;-71
2022/01/04 05:24:30;;;;;;;13.18;3.85;;;9.70;99.90;;;;;;5035561;28;20078;-71
2022/01/04 05:26:55;;;;;;;9.07;2.53;;;9.70;99.90;;;;;;5032032;28;20061;-70
2022/01/04 05:29:21;;;;;;;9.18;2.72;;;9.70;99.90;;;;;;5031863;28;20033;-70
2022/01/04 05:31:47;;;;;;;9.02;2.80;;;9.70;99.90;;;;;;5056293;28;20032;-70
2022/01/04 05:34:12;;;;;;;8.15;2.08;;;9.70;99.90;;;;;;5071877;28;20032;-71
2022/01/04 05:36:38;;;;;;;6.28;1.77;;;9.70;99.90;;;;;;5055609;28;20060;-72
2022/01/04 05:39:04;;;;;;;10.70;3.08;;;9.60;99.90;;;;;;5033631;28;20033;-71
2022/01/04 05:41:30;;;;;;;5.43;2.60;;;9.60;99.90;;;;;;5033827;28;20039;-71
2022/01/04 05:43:55;;;;;;;9.93;3.03;;;9.60;99.90;;;;;;5033725;28;20128;-71
2022/01/04 05:46:21;;;;;;;9.73;2.67;;;9.60;99.90;;;;;;5050389;28;20040;-71
2022/01/04 05:48:47;;;;;;;6.88;3.05;;;9.60;99.90;;;;;;5017418;28;20036;-71
2022/01/04 05:51:12;;;;;;;12.50;3.60;;;9.50;99.90;;;;;;5036972;28;20510;-70
2022/01/04 05:53:38;;;;;;;9.15;3.05;;;9.60;99.90;;;;;;5033772;28;20131;-72
2022/01/04 05:56:04;;;;;;;7.90;2.35;;;9.60;99.90;;;;;;5037969;28;20033;-71
2022/01/04 05:58:29;;;;;;;15.18;3.78;;;9.60;99.90;;;;;;5052035;28;20024;-70
2022/01/04 06:00:55;;;;;;;10.35;2.83;;;9.60;99.90;;;;;;5047393;28;20108;-71
2022/01/04 06:03:21;;;;;;;7.57;2.33;;;9.60;99.90;;;;;;5040834;28;20457;-72
2022/01/04 06:05:46;;;;;;;11.45;3.42;;;9.60;99.90;;;;;;5033160;28;20031;-71
2022/01/04 06:08:12;;;;;;;10.80;3.22;;;9.70;99.90;;;;;;5035806;28;20025;-72
2022/01/04 06:10:40;;;;;;;7.82;3.38;;;9.70;99.90;;;;;;5038664;28;20055;-71
2022/01/04 06:15:38;;;;;;;7.07;2.53;;;9.70;99.90;;;;;;5042055;28;20033;-72
2022/01/04 06:18:04;;;;;;;15.40;4.32;;;9.70;99.90;;;;;;5046040;28;20040;-72
2022/01/04 06:20:29;;;;;;;6.00;2.83;;;9.70;99.90;;;;;;5043501;28;20042;-71
2022/01/04 06:22:55;;;;;;;8.40;2.88;;;9.70;99.90;;;;;;5032216;28;20429;-72
2022/01/04 06:25:21;;;;;;;5.88;2.03;;;9.70;99.90;;;;;;5048726;28;20037;-73
2022/01/04 06:27:48;;;;;;;10.48;2.60;;;9.80;99.90;;;;;;5050385;28;20033;-71
2022/01/04 06:30:18;;;;;;;8.95;3.60;;;9.80;99.90;;;;;;5025162;28;20045;-71
2022/01/04 06:32:44;;;;;;;5.53;3.13;;;9.80;99.90;;;;;;5036698;28;20984;-72
2022/01/04 06:35:09;;;;;;;17.13;4.07;;;9.80;99.90;;;;;;5035868;28;20121;-71
2022/01/04 06:37:35;;;;;;;9.27;3.05;;;9.80;99.90;;;;;;5050430;28;20460;-71
2022/01/04 06:40:01;;;;;;;8.48;3.13;;;9.80;99.90;;;;;;5046473;28;20053;-72
2022/01/04 06:42:26;;;;;;;7.75;2.97;;;9.80;99.90;;;;;;5044641;28;20040;-71
2022/01/04 06:44:53;;;;;;;10.10;2.80;;;9.80;99.90;;;;;;5033969;28;20399;-71
2022/01/04 06:47:18;;;;;;;7.90;3.33;;;9.80;99.90;;;;;;5051476;28;20112;-70
2022/01/04 06:49:44;;;;;;;12.80;4.00;;;9.80;99.90;;;;;;5045827;28;20207;-76
2022/01/04 06:52:10;;;;;;;23.98;15.63;;;9.80;99.90;;;;;;5033197;28;20139;-71
2022/01/04 06:54:36;;;;;;;371.58;232.35;;;9.80;99.90;;;;;;5043634;28;20037;-71
2022/01/04 06:57:02;;;;;;;96.00;56.20;;;9.80;99.90;;;;;;5057183;28;20024;-72
2022/01/04 06:59:28;;;;;;;37.17;20.52;;;9.80;99.90;;;;;;5060714;28;20059;-71
2022/01/04 07:01:53;;;;;;;17.48;10.70;;;9.80;99.90;;;;;;5060873;28;20045;-70
2022/01/04 07:04:19;;;;;;;14.48;6.57;;;9.80;99.90;;;;;;5051073;28;20117;-73
2022/01/04 07:06:45;;;;;;;8.55;4.63;;;9.80;99.90;;;;;;5022430;28;20041;-73
2022/01/04 07:09:13;;;;;;;8.00;3.47;;;9.80;99.90;;;;;;5047412;28;20029;-75
2022/01/04 07:11:39;;;;;;;9.30;3.78;;;9.80;99.90;;;;;;5033914;28;20132;-77
2022/01/04 07:14:05;;;;;;;6.47;2.95;;;9.80;99.90;;;;;;5037606;28;20453;-69
2022/01/04 07:16:30;;;;;;;170.50;147.82;;;9.80;99.90;;;;;;5039477;28;20024;-70
2022/01/04 07:18:56;;;;;;;42.13;29.40;;;9.80;99.90;;;;;;5049600;28;20033;-72
2022/01/04 07:21:22;;;;;;;21.00;12.35;;;9.80;99.90;;;;;;5051865;28;20085;-73
2022/01/04 07:23:50;;;;;;;11.57;6.38;;;9.80;99.90;;;;;;5054577;28;20052;-72
2022/01/04 07:26:16;;;;;;;9.77;5.60;;;9.80;99.90;;;;;;5035989;28;20396;-72
2022/01/04 07:28:44;;;;;;;8.75;3.88;;;9.80;99.90;;;;;;5045621;28;20144;-72
2022/01/04 07:31:09;;;;;;;7.25;2.47;;;9.80;99.90;;;;;;5041011;28;20384;-73
2022/01/04 07:33:35;;;;;;;8.15;3.25;;;9.80;99.90;;;;;;5031886;28;20044;-73
2022/01/04 07:36:01;;;;;;;10.50;2.65;;;9.80;99.90;;;;;;5032374;28;20105;-73
2022/01/04 07:38:27;;;;;;;6.88;2.13;;;9.80;99.90;;;;;;5040087;28;20037;-74
2022/01/04 07:40:52;;;;;;;4.13;1.90;;;9.80;99.90;;;;;;5030425;28;20033;-74
2022/01/04 07:43:18;;;;;;;6.53;2.42;;;9.80;99.90;;;;;;5050054;28;20376;-76
2022/01/04 07:45:44;;;;;;;8.20;2.08;;;9.70;99.90;;;;;;5049691;28;20464;-73
2022/01/04 07:48:14;;;;;;;6.80;2.65;;;9.70;99.90;;;;;;5029600;28;20664;-73
2022/01/04 07:50:40;;;;;;;9.38;2.50;;;9.60;99.90;;;;;;5047004;28;20017;-72
2022/01/04 07:53:06;;;;;;;4.05;1.70;;;9.60;99.90;;;;;;5032448;28;20032;-74
2022/01/04 07:55:32;;;;;;;5.25;2.60;;;9.60;99.90;;;;;;5038525;28;20029;-76
2022/01/04 07:57:58;;;;;;;9.20;3.55;;;9.50;99.90;;;;;;5067162;28;20058;-76
2022/01/04 08:00:25;;;;;;;4.30;2.30;;;9.50;99.90;;;;;;5047788;28;20048;-75
2022/01/04 08:02:51;;;;;;;16.55;9.00;;;9.40;99.90;;;;;;5034545;28;20027;-76
2022/01/04 08:05:17;;;;;;;54.03;44.33;;;9.40;99.90;;;;;;5017751;28;20037;-73
2022/01/04 08:07:43;;;;;;;33.88;26.67;;;9.40;99.90;;;;;;5042423;28;20064;-75
2022/01/04 08:10:09;;;;;;;17.35;12.57;;;9.30;99.90;;;;;;5053737;28;20040;-76
2022/01/04 08:12:35;;;;;;;11.60;6.07;;;9.30;99.90;;;;;;5041393;28;20050;-75
2022/01/04 08:15:03;;;;;;;9.30;3.80;;;9.20;99.90;;;;;;5038169;28;20036;-70
2022/01/04 08:17:31;;;;;;;7.13;3.45;;;9.20;99.90;;;;;;5051380;28;20033;-76
2022/01/04 08:19:57;;;;;;;4.93;2.08;;;9.20;99.90;;;;;;5047252;28;20040;-71
2022/01/04 08:22:23;;;;;;;10.90;3.58;;;9.10;99.90;;;;;;5030177;28;20123;-74
2022/01/04 08:24:49;;;;;;;9.65;2.90;;;9.10;99.90;;;;;;5048883;28;20155;-75
2022/01/04 08:27:15;;;;;;;5.25;2.03;;;9.00;99.90;;;;;;5041506;28;20484;-75
2022/01/04 08:29:41;;;;;;;4.47;1.98;;;9.10;99.90;;;;;;5033781;28;20719;-72
2022/01/04 08:32:07;;;;;;;9.07;3.38;;;9.00;99.90;;;;;;5032223;28;20065;-73
2022/01/04 08:34:32;;;;;;;9.23;2.63;;;9.00;99.90;;;;;;5037286;28;20099;-76
2022/01/04 08:36:58;;;;;;;5.28;1.83;;;9.00;99.90;;;;;;5044505;28;20033;-76
2022/01/04 08:39:26;;;;;;;4.00;1.95;;;9.00;99.90;;;;;;5042747;28;20042;-76
2022/01/04 08:41:54;;;;;;;11.15;3.17;;;9.00;99.90;;;;;;5044212;28;20033;-77
2022/01/04 08:44:23;;;;;;;29.77;18.90;;;9.00;99.90;;;;;;5038853;28;20040;-75
2022/01/04 08:46:49;;;;;;;20.60;12.85;;;9.10;99.90;;;;;;5044959;28;20068;-74
2022/01/04 08:49:14;;;;;;;13.32;7.55;;;9.10;99.90;;;;;;5062928;28;20068;-74
2022/01/04 08:51:40;;;;;;;9.70;4.82;;;9.10;99.90;;;;;;5039336;28;20123;-75
2022/01/04 08:54:06;;;;;;;12.57;3.47;;;9.10;99.90;;;;;;5051088;28;20068;-76
2022/01/04 08:56:32;;;;;;;6.35;3.00;;;9.10;99.90;;;;;;5040724;28;20037;-82
2022/01/04 08:58:58;;;;;;;7.50;3.28;;;9.20;99.90;;;;;;5041234;28;20119;-73
2022/01/04 09:01:24;;;;;;;7.70;2.88;;;9.20;99.90;;;;;;5050603;28;20117;-80
2022/01/04 09:03:49;;;;;;;4.60;2.38;;;9.20;99.90;;;;;;5059190;28;20056;-77
2022/01/04 09:06:15;;;;;;;9.88;3.45;;;9.30;99.90;;;;;;5031472;28;20040;-76
2022/01/04 09:08:42;;;;;;;12.18;3.97;;;9.30;99.90;;;;;;5056758;28;20121;-74
2022/01/04 09:11:08;;;;;;;11.75;3.25;;;9.40;99.90;;;;;;5062800;28;20128;-70
2022/01/04 09:13:38;;;;;;;7.88;3.22;;;9.40;99.90;;;;;;5009987;28;20037;-63
2022/01/04 09:18:46;;;;;;;8.98;3.30;;;9.50;99.90;;;;;;5045976;28;20120;-74
2022/01/04 09:21:26;;;;;;;10.65;2.65;;;9.50;99.90;;;;;;5028480;28;20128;-75
2022/01/04 09:23:53;;;;;;;8.75;2.95;;;9.50;99.90;;;;;;5038928;28;20025;-74
2022/01/04 09:26:19;;;;;;;6.22;2.65;;;9.60;99.90;;;;;;5045035;28;20029;-75
2022/01/04 09:28:45;;;;;;;8.07;2.45;;;9.50;99.90;;;;;;5046463;28;20415;-75
2022/01/04 09:31:11;;;;;;;12.77;4.15;;;9.60;99.90;;;;;;5038882;28;20029;-75
2022/01/04 09:33:37;;;;;;;6.47;3.00;;;9.60;99.90;;;;;;5043847;28;20025;-74
2022/01/04 09:36:06;;;;;;;4.90;2.33;;;9.50;99.90;;;;;;5060744;28;20040;-71
2022/01/04 09:38:33;;;;;;;7.17;3.07;;;9.50;99.90;;;;;;5061892;28;20025;-71
2022/01/04 09:40:59;;;;;;;18.85;4.38;;;9.60;99.90;;;;;;5069870;28;20033;-80
2022/01/04 09:43:25;;;;;;;11.00;3.15;;;9.60;99.90;;;;;;5053012;28;20441;-71
2022/01/04 09:45:52;;;;;;;5.95;2.35;;;9.60;99.90;;;;;;5050788;28;20453;-73
2022/01/04 09:48:19;;;;;;;6.68;2.42;;;9.60;99.90;;;;;;5036460;28;20467;-78
2022/01/04 09:50:45;;;;;;;9.57;3.72;;;9.60;99.90;;;;;;5051904;28;20017;-72
2022/01/04 09:53:12;;;;;;;18.17;4.55;;;9.60;99.90;;;;;;5052167;28;20037;-78
2022/01/04 09:55:42;;;;;;;10.73;3.80;;;9.60;99.90;;;;;;5037124;28;20146;-78
2022/01/04 09:58:08;;;;;;;9.95;4.03;;;9.60;99.90;;;;;;5062928;28;20032;-73
2022/01/04 10:00:34;;;;;;;22.88;5.50;;;9.60;99.90;;;;;;5033991;28;20036;-75
2022/01/04 10:03:16;;;;;;;14.48;4.25;;;9.60;99.90;;;;;;5043546;28;20119;-81
2022/01/04 10:05:42;;;;;;;5.35;1.88;;;9.60;99.90;;;;;;5057186;28;20051;-72
2022/01/04 10:08:08;;;;;;;3.70;1.70;;;9.50;99.90;;;;;;5041195;28;20551;-73
2022/01/04 10:10:34;;;;;;;2.75;1.50;;;9.10;99.90;;;;;;5043038;28;20033;-72
2022/01/04 10:13:08;;;;;;;2.33;1.40;;;8.70;99.90;;;;;;5057472;28;20049;-74
2022/01/04 10:15:50;;;;;;;3.58;1.55;;;8.40;99.90;;;;;;5040049;28;20045;-73
2022/01/04 10:18:21;;;;;;;5.15;1.38;;;8.10;99.90;;;;;;5057552;28;20029;-75
2022/01/04 10:21:02;;;;;;;1.30;1.10;;;7.90;99.90;;;;;;5034476;28;20044;-75
2022/01/04 10:23:27;;;;;;;0.88;0.70;;;7.60;99.90;;;;;;5061865;28;20025;-77
2022/01/04 10:26:02;;;;;;;0.68;0.63;;;7.50;99.90;;;;;;5050165;28;20032;-73
2022/01/04 10:28:35;;;;;;;0.57;0.57;;;7.30;99.90;;;;;;5050403;28;20115;-73
2022/01/04 10:31:03;;;;;;;0.95;0.57;;;7.10;99.90;;;;;;5052098;28;20045;-78
2022/01/04 10:33:31;;;;;;;1.58;0.80;;;6.90;99.90;;;;;;5033111;28;20057;-77
2022/01/04 10:35:57;;;;;;;2.28;0.80;;;6.70;99.90;;;;;;5065912;28;20444;-76
2022/01/04 10:38:28;;;;;;;3.95;0.75;;;6.50;99.90;;;;;;5052739;28;20066;-83
2022/01/04 10:41:03;;;;;;;1.35;0.88;;;6.30;99.90;;;;;;5019905;28;20031;-78
2022/01/04 10:43:38;;;;;;;4.32;1.45;;;6.30;99.90;;;;;;5050775;28;20033;-83
2022/01/04 10:46:04;;;;;;;5.55;1.40;;;6.30;99.90;;;;;;5051453;28;20025;-75
2022/01/04 10:48:31;;;;;;;2.42;1.00;;;6.20;99.90;;;;;;5058908;28;20043;-80
2022/01/04 10:51:14;;;;;;;2.30;1.33;;;6.20;99.90;;;;;;5061274;28;20045;-81
2022/01/04 10:53:43;;;;;;;0.98;0.88;;;6.10;99.90;;;;;;5055014;28;20041;-78
2022/01/04 10:56:11;;;;;;;1.77;1.27;;;6.10;99.90;;;;;;5048764;28;20123;-74
2022/01/04 10:58:38;;;;;;;1.70;0.90;;;6.20;99.90;;;;;;5050200;28;20039;-80
2022/01/04 11:01:09;;;;;;;1.73;1.20;;;6.10;99.90;;;;;;5054362;28;20044;-78
2022/01/04 11:03:37;;;;;;;5.35;1.17;;;6.10;99.90;;;;;;5052312;28;20036;-74
2022/01/04 11:06:05;;;;;;;2.70;1.38;;;6.10;99.90;;;;;;5022340;28;20121;-75
2022/01/04 11:08:31;;;;;;;2.08;1.10;;;6.00;99.90;;;;;;5059997;28;20029;-78
2022/01/04 11:10:57;;;;;;;2.17;1.30;;;5.90;99.90;;;;;;5033813;28;20103;-81
2022/01/04 11:13:23;;;;;;;1.88;1.10;;;5.80;99.90;;;;;;5014585;28;20503;-81
2022/01/04 11:15:49;;;;;;;3.72;0.95;;;5.70;99.90;;;;;;5068778;28;20037;-76
2022/01/04 11:18:15;;;;;;;4.60;0.90;;;5.60;99.90;;;;;;5061407;28;20040;-79
2022/01/04 11:20:41;;;;;;;1.40;0.90;;;5.60;99.90;;;;;;5035451;28;20037;-78
2022/01/04 11:23:07;;;;;;;1.27;0.90;;;5.60;99.90;;;;;;5036436;28;20055;-78
2022/01/04 11:25:33;;;;;;;1.05;0.77;;;5.50;99.90;;;;;;5062366;28;20056;-72
2022/01/04 11:28:01;;;;;;;1.55;1.13;;;5.40;99.90;;;;;;5067975;28;20033;-75
2022/01/04 11:30:41;;;;;;;1.25;0.85;;;5.30;99.90;;;;;;5035849;28;20033;-77
2022/01/04 11:33:35;;;;;;;1.40;0.90;;;5.30;99.90;;;;;;5027191;28;20044;-79
2022/01/04 11:36:01;;;;;;;2.95;1.00;;;5.40;99.90;;;;;;5040335;28;20120;-72
2022/01/04 11:38:44;;;;;;;0.93;0.80;;;5.40;99.90;;;;;;5041022;28;20115;-78
2022/01/04 11:41:19;;;;;;;1.20;0.90;;;5.40;99.90;;;;;;5036438;28;20083;-71
2022/01/04 11:43:44;;;;;;;1.00;0.70;;;5.30;99.90;;;;;;5063844;28;20024;-76
2022/01/04 11:46:10;;;;;;;2.00;1.00;;;5.30;99.90;;;;;;5052519;28;20124;-85
2022/01/04 11:48:41;;;;;;;1.65;1.02;;;5.30;99.90;;;;;;5035661;28;20108;-72
2022/01/04 11:51:32;;;;;;;1.42;0.98;;;5.30;99.90;;;;;;5052768;28;20047;-73
2022/01/04 11:54:24;;;;;;;1.63;1.13;;;5.20;99.90;;;;;;5057366;28;20444;-73
2022/01/04 11:57:02;;;;;;;21.52;13.65;;;5.10;99.90;;;;;;5057735;28;20096;-71
2022/01/04 11:59:36;;;;;;;2.70;1.90;;;5.10;99.90;;;;;;5057399;28;20037;-74
2022/01/04 12:02:38;;;;;;;2.10;1.50;;;5.00;99.90;;;;;;5052690;28;20032;-75
2022/01/04 12:05:15;;;;;;;2.45;1.65;;;5.00;99.90;;;;;;5040579;28;20725;-70
2022/01/04 12:07:44;;;;;;;2.70;1.67;;;4.90;99.90;;;;;;5048818;28;20033;-74
2022/01/04 12:10:22;;;;;;;1.80;1.30;;;4.80;99.90;;;;;;5052766;28;20022;-66
2022/01/04 12:13:09;;;;;;;2.58;2.17;;;4.80;99.90;;;;;;5042718;28;20416;-71
2022/01/04 12:15:34;;;;;;;4.40;1.30;;;4.80;99.90;;;;;;5034428;28;20045;-68
2022/01/04 12:18:04;;;;;;;2.30;1.30;;;4.60;99.90;;;;;;5033350;28;20103;-68
2022/01/04 12:20:42;;;;;;;;;;;4.50;99.90;;;;;;5047376;28;20037;-70
2022/01/04 12:23:22;;;;;;;2.75;1.77;;;4.50;99.90;;;;;;5033483;28;19912;-71
2022/01/04 12:26:07;;;;;;;3.45;1.70;;;4.40;99.90;;;;;;5040916;28;20033;-71
2022/01/04 12:28:35;;;;;;;2.95;1.90;;;4.50;99.90;;;;;;5033582;28;20025;-71
2022/01/04 12:31:19;;;;;;;4.13;1.60;;;4.50;99.90;;;;;;5046016;28;20033;-71
2022/01/04 12:33:55;;;;;;;17.67;12.50;;;4.50;99.90;;;;;;5062588;28;20736;-73
2022/01/04 12:36:31;;;;;;;6.40;3.88;;;4.50;99.90;;;;;;5032791;28;20476;-73
2022/01/04 12:39:01;;;;;;;4.07;2.58;;;4.60;99.90;;;;;;5059776;28;20100;-70
2022/01/04 12:41:26;;;;;;;;;;;4.60;99.90;;;;;;5033202;28;20040;-75
2022/01/04 12:43:52;;;;;;;2.90;2.10;;;4.60;99.90;;;;;;5055444;28;19909;-74
2022/01/04 12:46:26;;;;;;;4.82;2.70;;;4.60;99.90;;;;;;5055469;28;20825;-72
2022/01/04 12:48:53;;;;;;;4.70;2.47;;;4.60;99.90;;;;;;5055723;28;20103;-73
2022/01/04 12:51:30;;;;;;;4.75;2.45;;;4.60;99.90;;;;;;5050654;28;20029;-72
2022/01/04 12:54:01;;;;;;;5.47;2.42;;;4.60;99.90;;;;;;5054281;28;20078;-73
2022/01/04 12:56:27;;;;;;;4.53;2.95;;;4.60;99.90;;;;;;5050865;28;20350;-72
2022/01/04 12:58:53;;;;;;;4.45;3.35;;;4.60;99.90;;;;;;5033953;28;20021;-73
2022/01/04 13:01:27;;;;;;;4.78;3.00;;;4.60;99.90;;;;;;5026504;28;20045;-72
2022/01/04 13:03:53;;;;;;;5.90;3.03;;;4.50;99.90;;;;;;5033688;28;20036;-74